Time;durP1;ratioP1;P1;durP2;ratioP2;P2;SDS_P1;SDS_P2;PMS_P1;PMS_P2;Temp;Humidity;BMP_temperature;BMP_pressure;BME280_temperature;BME280_humidity;BME280_pressure;Samples;Min_cycle;Max_cycle;Signal;HPM_P1;HPM_P2
2024/01/24 00:01:00;;;;;;;16.67;3.10;;;;;;;;;;7369095;19;20007;-73
2024/01/24 00:03:25;;;;;;;11.70;2.42;;;;;;;;;;7364907;19;20531;-73
2024/01/24 00:05:51;;;;;;;9.77;2.13;;;;;;;;;;7368570;19;20010;-73
2024/01/24 00:08:16;;;;;;;11.18;2.42;;;;;;;;;;7370763;19;20115;-72
2024/01/24 00:10:42;;;;;;;8.02;2.22;;;;;;;;;;7378113;19;20147;-72
2024/01/24 00:13:07;;;;;;;8.60;2.75;;;;;;;;;;7387829;19;20006;-72
2024/01/24 00:15:32;;;;;;;10.38;2.78;;;;;;;;;;7369964;19;20070;-72
2024/01/24 00:17:58;;;;;;;11.43;2.22;;;;;;;;;;7369687;19;20090;-72
2024/01/24 00:20:23;;;;;;;8.25;2.50;;;;;;;;;;7373711;19;20023;-72
2024/01/24 00:22:49;;;;;;;11.38;2.70;;;;;;;;;;7378596;19;20046;-73
2024/01/24 00:25:14;;;;;;;7.90;2.30;;;;;;;;;;7397807;19;20532;-72
2024/01/24 00:27:39;;;;;;;10.55;2.08;;;;;;;;;;7373041;19;20010;-72
2024/01/24 00:30:07;;;;;;;10.32;2.63;;;;;;;;;;7373410;19;20465;-73
2024/01/24 00:32:35;;;;;;;9.57;2.40;;;;;;;;;;7373979;19;20002;-73
2024/01/24 00:35:00;;;;;;;9.40;1.92;;;;;;;;;;7373473;19;20004;-73
2024/01/24 00:37:26;;;;;;;8.35;2.08;;;;;;;;;;7394454;19;20007;-73
2024/01/24 00:39:51;;;;;;;8.10;1.70;;;;;;;;;;7378237;19;20002;-73
2024/01/24 00:42:16;;;;;;;8.13;2.13;;;;;;;;;;7373769;19;20015;-73
2024/01/24 00:44:43;;;;;;;5.60;1.83;;;;;;;;;;7372438;19;20071;-72
2024/01/24 00:47:08;;;;;;;4.82;1.92;;;;;;;;;;7374162;19;20039;-72
2024/01/24 00:49:33;;;;;;;4.93;1.98;;;;;;;;;;7394809;19;19999;-73
2024/01/24 00:51:59;;;;;;;6.07;1.75;;;;;;;;;;7370970;19;20010;-73
2024/01/24 00:54:24;;;;;;;6.45;2.00;;;;;;;;;;7372488;19;20013;-73
2024/01/24 00:56:49;;;;;;;7.43;1.80;;;;;;;;;;7373574;19;20070;-73
2024/01/24 00:59:15;;;;;;;5.82;1.88;;;;;;;;;;7374606;19;20006;-73
2024/01/24 01:01:40;;;;;;;5.78;1.80;;;;;;;;;;7396249;19;20465;-73
2024/01/24 01:04:06;;;;;;;3.92;1.48;;;;;;;;;;7370760;19;20062;-72
2024/01/24 01:06:31;;;;;;;4.35;1.65;;;;;;;;;;7371892;19;20723;-72
2024/01/24 01:08:56;;;;;;;5.70;1.63;;;;;;;;;;7372696;19;20006;-73
2024/01/24 01:11:22;;;;;;;5.45;1.70;;;;;;;;;;7371936;19;20034;-72
2024/01/24 01:13:48;;;;;;;5.97;1.60;;;;;;;;;;7372365;19;20010;-73
2024/01/24 01:16:13;;;;;;;4.03;1.70;;;;;;;;;;7395620;19;20478;-73
2024/01/24 01:18:38;;;;;;;4.45;1.70;;;;;;;;;;7372282;19;19998;-73
2024/01/24 01:21:04;;;;;;;5.72;1.50;;;;;;;;;;7372947;19;20006;-73
2024/01/24 01:23:29;;;;;;;5.07;1.58;;;;;;;;;;7372280;19;20070;-73
2024/01/24 01:25:55;;;;;;;4.43;1.60;;;;;;;;;;7372400;19;20329;-73
2024/01/24 01:28:20;;;;;;;5.65;1.60;;;;;;;;;;7393437;19;20070;-73
2024/01/24 01:30:45;;;;;;;2.90;1.60;;;;;;;;;;7372136;19;20014;-73
2024/01/24 01:33:10;;;;;;;2.92;1.45;;;;;;;;;;7368659;19;20035;-72
2024/01/24 01:35:37;;;;;;;4.18;1.60;;;;;;;;;;7371423;19;20009;-72
2024/01/24 01:38:02;;;;;;;3.17;1.40;;;;;;;;;;7371689;19;20515;-72
2024/01/24 01:40:28;;;;;;;4.90;1.30;;;;;;;;;;7392332;19;20007;-72
2024/01/24 01:42:53;;;;;;;1.42;1.17;;;;;;;;;;7367573;19;20375;-72
2024/01/24 01:45:19;;;;;;;2.97;1.30;;;;;;;;;;7367683;19;20007;-72
2024/01/24 01:47:47;;;;;;;1.27;1.10;;;;;;;;;;7366151;19;20046;-72
2024/01/24 01:50:16;;;;;;;1.48;1.20;;;;;;;;;;7368419;19;20008;-72
2024/01/24 01:52:42;;;;;;;2.65;1.10;;;;;;;;;;7377134;19;20002;-72
2024/01/24 01:55:10;;;;;;;3.05;1.13;;;;;;;;;;7389713;19;20379;-72
2024/01/24 01:57:36;;;;;;;3.58;1.25;;;;;;;;;;7366604;19;20597;-72
2024/01/24 02:00:05;;;;;;;3.83;1.50;;;;;;;;;;7368755;19;20505;-73
2024/01/24 02:02:31;;;;;;;3.80;1.38;;;;;;;;;;7369983;19;20014;-72
2024/01/24 02:04:59;;;;;;;1.85;1.15;;;;;;;;;;7368539;19;20010;-73
2024/01/24 02:07:24;;;;;;;2.72;1.10;;;;;;;;;;7392661;19;20014;-73
2024/01/24 02:09:50;;;;;;;1.58;1.10;;;;;;;;;;7373404;19;20002;-73
2024/01/24 02:12:16;;;;;;;2.17;1.27;;;;;;;;;;7369833;19;20015;-72
2024/01/24 02:14:41;;;;;;;4.25;1.33;;;;;;;;;;7368712;19;20007;-72
2024/01/24 02:17:06;;;;;;;3.17;1.40;;;;;;;;;;7369698;19;20414;-72
2024/01/24 02:19:32;;;;;;;0.85;0.85;;;;;;;;;;7392601;19;19999;-72
2024/01/24 02:21:57;;;;;;;1.98;1.20;;;;;;;;;;7375519;19;19999;-73
2024/01/24 02:24:22;;;;;;;4.13;1.20;;;;;;;;;;7375095;19;20535;-72
2024/01/24 02:26:48;;;;;;;1.95;1.00;;;;;;;;;;7372414;19;20018;-72
2024/01/24 02:29:13;;;;;;;2.58;1.10;;;;;;;;;;7373617;19;20519;-72
2024/01/24 02:31:39;;;;;;;1.55;1.10;;;;;;;;;;7395710;19;20001;-72
2024/01/24 02:34:04;;;;;;;2.90;1.15;;;;;;;;;;7370510;19;20014;-72
2024/01/24 02:36:29;;;;;;;4.57;1.50;;;;;;;;;;7369539;19;20476;-72
2024/01/24 02:38:55;;;;;;;3.58;1.33;;;;;;;;;;7368444;19;20599;-72
2024/01/24 02:41:20;;;;;;;2.00;1.08;;;;;;;;;;7369792;19;20094;-72
2024/01/24 02:43:46;;;;;;;1.10;1.00;;;;;;;;;;7366530;19;20086;-72
2024/01/24 02:46:12;;;;;;;3.03;1.10;;;;;;;;;;7393205;19;20457;-72
2024/01/24 02:48:37;;;;;;;1.27;0.98;;;;;;;;;;7369686;19;20468;-73
2024/01/24 02:51:02;;;;;;;2.72;1.10;;;;;;;;;;7371341;19;20111;-73
2024/01/24 02:53:28;;;;;;;2.42;1.08;;;;;;;;;;7372600;19;20009;-73
2024/01/24 02:55:53;;;;;;;1.20;1.08;;;;;;;;;;7373627;19;20011;-73
2024/01/24 02:58:18;;;;;;;1.98;1.30;;;;;;;;;;7392274;19;20062;-73
2024/01/24 03:00:44;;;;;;;2.10;1.15;;;;;;;;;;7368401;19;20006;-73
2024/01/24 03:03:09;;;;;;;1.05;1.00;;;;;;;;;;7367619;19;20525;-73
2024/01/24 03:05:34;;;;;;;3.30;1.17;;;;;;;;;;7371467;19;20053;-73
2024/01/24 03:08:00;;;;;;;3.08;1.00;;;;;;;;;;7370611;19;20358;-73
2024/01/24 03:10:28;;;;;;;2.85;1.30;;;;;;;;;;7396042;19;20007;-73
2024/01/24 03:12:54;;;;;;;1.08;0.90;;;;;;;;;;7373900;19;20027;-72
2024/01/24 03:15:19;;;;;;;2.38;1.10;;;;;;;;;;7371248;19;20014;-73
2024/01/24 03:17:45;;;;;;;2.33;1.20;;;;;;;;;;7373057;19;20061;-73
2024/01/24 03:20:11;;;;;;;1.52;1.15;;;;;;;;;;7377590;19;20018;-73
2024/01/24 03:22:37;;;;;;;2.65;1.33;;;;;;;;;;7397445;19;20050;-72
2024/01/24 03:25:02;;;;;;;1.95;1.00;;;;;;;;;;7386387;19;20007;-72
2024/01/24 03:27:28;;;;;;;1.48;1.00;;;;;;;;;;7385675;19;20010;-72
2024/01/24 03:29:53;;;;;;;3.30;1.20;;;;;;;;;;7386495;19;20476;-71
2024/01/24 03:32:18;;;;;;;1.10;0.93;;;;;;;;;;7385725;19;20035;-71
2024/01/24 03:34:58;;;;;;;3.58;0.90;;;;;;;;;;7386822;19;20047;-71
2024/01/24 03:37:24;;;;;;;0.95;0.95;;;;;;;;;;7408299;19;20007;-71
2024/01/24 03:39:50;;;;;;;1.20;1.00;;;;;;;;;;7385630;19;20429;-72
2024/01/24 03:42:15;;;;;;;2.90;1.00;;;;;;;;;;7378613;19;20073;-72
2024/01/24 03:44:40;;;;;;;0.90;0.90;;;;;;;;;;7382408;19;20003;-71
2024/01/24 03:47:06;;;;;;;1.27;1.00;;;;;;;;;;7387775;19;19999;-71
2024/01/24 03:49:32;;;;;;;1.20;1.00;;;;;;;;;;7411474;19;20023;-72
2024/01/24 03:51:57;;;;;;;0.80;0.80;;;;;;;;;;7384791;19;20042;-72
2024/01/24 03:54:22;;;;;;;2.22;1.10;;;;;;;;;;7374714;19;20073;-72
2024/01/24 03:56:48;;;;;;;2.95;1.10;;;;;;;;;;7379744;19;20007;-72
2024/01/24 03:59:14;;;;;;;1.10;1.05;;;;;;;;;;7380795;19;19998;-72
2024/01/24 04:01:39;;;;;;;1.10;1.00;;;;;;;;;;7403402;19;20011;-72
2024/01/24 04:04:04;;;;;;;2.30;0.80;;;;;;;;;;7377180;19;20002;-72
2024/01/24 04:06:30;;;;;;;1.75;1.00;;;;;;;;;;7379524;19;20014;-72
2024/01/24 04:08:55;;;;;;;1.40;0.80;;;;;;;;;;7380330;19;20014;-72
2024/01/24 04:11:20;;;;;;;1.25;0.90;;;;;;;;;;7381509;19;20014;-72
2024/01/24 04:13:51;;;;;;;1.23;1.10;;;;;;;;;;7379594;19;20094;-72
2024/01/24 04:16:17;;;;;;;1.60;1.00;;;;;;;;;;7398815;19;19995;-72
2024/01/24 04:18:42;;;;;;;1.65;1.00;;;;;;;;;;7378957;19;20074;-72
2024/01/24 04:21:08;;;;;;;1.38;1.00;;;;;;;;;;7378258;19;20451;-72
2024/01/24 04:23:33;;;;;;;1.90;1.10;;;;;;;;;;7378320;19;20003;-72
2024/01/24 04:25:58;;;;;;;1.60;0.90;;;;;;;;;;7379864;19;20031;-72
2024/01/24 04:28:24;;;;;;;1.92;0.98;;;;;;;;;;7399959;19;20029;-72
2024/01/24 04:30:49;;;;;;;1.45;0.98;;;;;;;;;;7378809;19;20007;-72
2024/01/24 04:33:14;;;;;;;1.02;0.90;;;;;;;;;;7376044;19;20014;-72
2024/01/24 04:35:40;;;;;;;1.33;0.90;;;;;;;;;;7376205;19;20011;-72
2024/01/24 04:38:05;;;;;;;1.00;0.90;;;;;;;;;;7374341;19;20034;-72
2024/01/24 04:40:30;;;;;;;1.20;1.10;;;;;;;;;;7397724;19;20066;-72
2024/01/24 04:42:56;;;;;;;1.75;1.20;;;;;;;;;;7374936;19;20032;-72
2024/01/24 04:45:21;;;;;;;1.10;1.00;;;;;;;;;;7373242;19;20015;-72
2024/01/24 04:47:46;;;;;;;1.20;1.10;;;;;;;;;;7372352;19;20015;-72
2024/01/24 04:50:12;;;;;;;2.00;0.80;;;;;;;;;;7373152;19;20185;-72
2024/01/24 04:52:37;;;;;;;0.82;0.70;;;;;;;;;;7394997;19;20010;-72
2024/01/24 04:55:03;;;;;;;0.90;0.90;;;;;;;;;;7372798;19;20011;-72
2024/01/24 04:57:28;;;;;;;1.10;1.00;;;;;;;;;;7371660;19;20546;-72
2024/01/24 04:59:53;;;;;;;1.05;0.90;;;;;;;;;;7373207;19;20014;-72
2024/01/24 05:02:19;;;;;;;1.05;1.05;;;;;;;;;;7370125;19;20027;-73
2024/01/24 05:04:45;;;;;;;1.02;0.88;;;;;;;;;;7370803;19;20114;-73
2024/01/24 05:07:10;;;;;;;1.15;1.00;;;;;;;;;;7394213;19;19995;-72
2024/01/24 05:09:36;;;;;;;1.15;1.05;;;;;;;;;;7373790;19;20007;-72
2024/01/24 05:12:01;;;;;;;1.10;1.00;;;;;;;;;;7374588;19;20074;-73
2024/01/24 05:14:26;;;;;;;1.40;1.30;;;;;;;;;;7371459;19;20014;-72
2024/01/24 05:16:52;;;;;;;2.20;1.17;;;;;;;;;;7370555;19;20016;-73
2024/01/24 05:19:17;;;;;;;1.13;0.95;;;;;;;;;;7393693;19;20002;-73
2024/01/24 05:21:42;;;;;;;1.17;1.00;;;;;;;;;;7373118;19;19998;-71
2024/01/24 05:24:09;;;;;;;0.88;0.80;;;;;;;;;;7372596;19;20338;-71
2024/01/24 05:26:36;;;;;;;0.77;0.77;;;;;;;;;;7369335;19;20006;-72
2024/01/24 05:29:04;;;;;;;0.90;0.90;;;;;;;;;;7369987;19;20028;-71
2024/01/24 05:31:29;;;;;;;0.93;0.80;;;;;;;;;;7392952;19;20015;-72
2024/01/24 05:33:55;;;;;;;1.45;0.68;;;;;;;;;;7370032;19;20029;-72
2024/01/24 05:36:21;;;;;;;0.70;0.70;;;;;;;;;;7372630;19;20579;-72
2024/01/24 05:38:46;;;;;;;0.68;0.68;;;;;;;;;;7370679;19;20010;-72
2024/01/24 05:41:12;;;;;;;0.88;0.80;;;;;;;;;;7355111;19;20018;-72
2024/01/24 05:43:37;;;;;;;0.80;0.80;;;;;;;;;;7386402;19;20017;-72
2024/01/24 05:46:03;;;;;;;0.70;0.70;;;;;;;;;;7368184;19;20008;-72
2024/01/24 05:48:28;;;;;;;0.60;0.60;;;;;;;;;;7367132;19;20508;-72
2024/01/24 05:50:53;;;;;;;0.60;0.60;;;;;;;;;;7368161;19;20031;-72
2024/01/24 05:53:19;;;;;;;0.63;0.63;;;;;;;;;;7372433;19;20014;-73
2024/01/24 05:55:44;;;;;;;0.90;0.90;;;;;;;;;;7369216;19;20003;-72
2024/01/24 05:58:09;;;;;;;0.90;0.70;;;;;;;;;;7388199;19;20114;-72
2024/01/24 06:00:34;;;;;;;0.63;0.63;;;;;;;;;;7366591;19;20673;-72
2024/01/24 06:03:00;;;;;;;0.85;0.70;;;;;;;;;;7362572;19;20006;-72
2024/01/24 06:05:25;;;;;;;0.50;0.50;;;;;;;;;;7367297;19;20030;-72
2024/01/24 06:07:50;;;;;;;1.80;0.77;;;;;;;;;;7365638;19;20002;-72
2024/01/24 06:10:16;;;;;;;0.63;0.63;;;;;;;;;;7386978;19;20002;-72
2024/01/24 06:12:42;;;;;;;0.73;0.60;;;;;;;;;;7365588;19;20006;-72
2024/01/24 06:15:08;;;;;;;0.93;0.75;;;;;;;;;;7367071;19;20010;-72
2024/01/24 06:17:33;;;;;;;0.57;0.57;;;;;;;;;;7364638;19;20019;-72
2024/01/24 06:19:59;;;;;;;0.65;0.65;;;;;;;;;;7364897;19;20007;-72
2024/01/24 06:22:25;;;;;;;0.70;0.70;;;;;;;;;;7387797;19;20002;-72
2024/01/24 06:24:50;;;;;;;0.60;0.60;;;;;;;;;;7365039;19;20008;-72
2024/01/24 06:27:16;;;;;;;0.95;0.80;;;;;;;;;;7363578;19;20730;-72
2024/01/24 06:29:41;;;;;;;0.95;0.50;;;;;;;;;;7364547;19;20035;-72
2024/01/24 06:32:07;;;;;;;1.33;0.70;;;;;;;;;;7366534;19;20038;-72
2024/01/24 06:34:32;;;;;;;0.50;0.50;;;;;;;;;;7388614;19;20006;-72
2024/01/24 06:36:58;;;;;;;0.50;0.50;;;;;;;;;;7367287;19;20006;-72
2024/01/24 06:39:23;;;;;;;0.70;0.70;;;;;;;;;;7368040;19;20010;-72
2024/01/24 06:41:49;;;;;;;0.70;0.70;;;;;;;;;;7368208;19;20040;-72
2024/01/24 06:44:14;;;;;;;0.68;0.68;;;;;;;;;;7368024;19;20014;-72
2024/01/24 06:46:44;;;;;;;0.60;0.60;;;;;;;;;;7389738;19;20023;-72
2024/01/24 06:49:10;;;;;;;0.70;0.70;;;;;;;;;;7365482;19;20006;-72
2024/01/24 06:51:37;;;;;;;0.68;0.60;;;;;;;;;;7365378;19;20510;-72
2024/01/24 06:54:03;;;;;;;0.70;0.68;;;;;;;;;;7365709;19;19998;-72
2024/01/24 06:56:29;;;;;;;2.08;0.90;;;;;;;;;;7365431;19;20124;-72
2024/01/24 06:58:54;;;;;;;0.73;0.63;;;;;;;;;;7364729;19;20094;-72
2024/01/24 07:01:19;;;;;;;0.70;0.70;;;;;;;;;;7389233;19;20488;-72
2024/01/24 07:03:44;;;;;;;1.73;1.35;;;;;;;;;;7370903;19;20050;-72
2024/01/24 07:06:10;;;;;;;0.73;0.70;;;;;;;;;;7370259;19;20010;-72
2024/01/24 07:08:39;;;;;;;0.57;0.57;;;;;;;;;;7368025;19;20098;-72
2024/01/24 07:11:05;;;;;;;1.10;0.70;;;;;;;;;;7366203;19;20509;-73
2024/01/24 07:13:31;;;;;;;0.70;0.70;;;;;;;;;;7387257;19;20006;-71
2024/01/24 07:15:56;;;;;;;1.40;1.08;;;;;;;;;;7364948;19;20035;-72
2024/01/24 07:18:22;;;;;;;0.70;0.70;;;;;;;;;;7364480;19;20069;-71
2024/01/24 07:20:47;;;;;;;1.00;0.90;;;;;;;;;;7366247;19;20353;-72
2024/01/24 07:23:13;;;;;;;0.50;0.50;;;;;;;;;;7365730;19;20014;-72
2024/01/24 07:25:38;;;;;;;0.98;0.80;;;;;;;;;;7385807;19;20507;-72
2024/01/24 07:28:03;;;;;;;7.47;4.28;;;;;;;;;;7369843;19;19998;-71
2024/01/24 07:30:29;;;;;;;1.30;1.20;;;;;;;;;;7362834;19;20024;-72
2024/01/24 07:32:54;;;;;;;1.30;0.88;;;;;;;;;;7364467;19;20952;-72
2024/01/24 07:35:19;;;;;;;0.50;0.50;;;;;;;;;;7366059;19;20006;-72
2024/01/24 07:37:45;;;;;;;0.63;0.63;;;;;;;;;;7373191;19;20489;-72
2024/01/24 07:40:11;;;;;;;0.75;0.75;;;;;;;;;;7389218;19;19999;-72
2024/01/24 07:42:37;;;;;;;0.63;0.63;;;;;;;;;;7363900;19;20023;-71
2024/01/24 07:45:02;;;;;;;0.75;0.75;;;;;;;;;;7364297;19;19998;-71
2024/01/24 07:47:28;;;;;;;1.10;0.70;;;;;;;;;;7362713;19;19998;-71
2024/01/24 07:49:53;;;;;;;0.50;0.50;;;;;;;;;;7363763;19;20023;-72
2024/01/24 07:52:18;;;;;;;1.35;0.88;;;;;;;;;;7385955;19;20002;-73
2024/01/24 07:54:44;;;;;;;1.13;0.80;;;;;;;;;;7363688;19;20019;-72
2024/01/24 07:57:09;;;;;;;1.13;0.90;;;;;;;;;;7363947;19;20147;-71
2024/01/24 07:59:34;;;;;;;1.35;0.77;;;;;;;;;;7363983;19;20013;-72
2024/01/24 08:02:02;;;;;;;1.25;0.60;;;;;;;;;;7363479;19;20014;-72
2024/01/24 08:04:28;;;;;;;0.88;0.80;;;;;;;;;;7383302;19;20007;-71
2024/01/24 08:06:54;;;;;;;8.10;4.63;;;;;;;;;;7364737;19;20031;-71
2024/01/24 08:09:19;;;;;;;1.90;0.88;;;;;;;;;;7363960;19;20544;-71
2024/01/24 08:11:45;;;;;;;0.70;0.70;;;;;;;;;;7363138;19;20702;-72
2024/01/24 08:14:10;;;;;;;0.80;0.80;;;;;;;;;;7362744;19;20006;-72
2024/01/24 08:16:35;;;;;;;0.70;0.70;;;;;;;;;;7385388;19;20003;-71
2024/01/24 08:19:01;;;;;;;2.40;0.80;;;;;;;;;;7362136;19;20023;-72
2024/01/24 08:21:27;;;;;;;0.98;0.70;;;;;;;;;;7362063;19;20124;-72
2024/01/24 08:23:53;;;;;;;7.53;3.95;;;;;;;;;;7363652;19;20012;-73
2024/01/24 08:26:18;;;;;;;0.80;0.80;;;;;;;;;;7363829;19;20007;-71
2024/01/24 08:28:44;;;;;;;1.02;0.55;;;;;;;;;;7362685;19;20008;-73
2024/01/24 08:31:10;;;;;;;0.85;0.80;;;;;;;;;;7385143;19;20023;-72
2024/01/24 08:33:35;;;;;;;1.58;1.00;;;;;;;;;;7361755;19;20002;-72
2024/01/24 08:36:00;;;;;;;1.83;0.88;;;;;;;;;;7362194;19;20013;-73
2024/01/24 08:38:26;;;;;;;1.35;0.77;;;;;;;;;;7362644;19;20729;-74
2024/01/24 08:40:51;;;;;;;2.50;1.10;;;;;;;;;;7364986;19;20607;-73
2024/01/24 08:43:16;;;;;;;0.90;0.90;;;;;;;;;;7391205;19;20006;-71
2024/01/24 08:45:42;;;;;;;2.63;1.00;;;;;;;;;;7370354;19;20006;-72
2024/01/24 08:48:07;;;;;;;3.17;1.20;;;;;;;;;;7369273;19;19999;-72
2024/01/24 08:50:33;;;;;;;2.90;1.20;;;;;;;;;;7369960;19;20006;-71
2024/01/24 08:52:58;;;;;;;5.65;3.22;;;;;;;;;;7358557;19;20005;-71
2024/01/24 08:55:24;;;;;;;3.55;1.13;;;;;;;;;;7391447;19;20016;-72
2024/01/24 08:57:49;;;;;;;4.05;1.27;;;;;;;;;;7368346;19;20642;-71
2024/01/24 09:00:15;;;;;;;3.25;0.88;;;;;;;;;;7371589;19;20078;-71
2024/01/24 09:02:40;;;;;;;2.85;1.20;;;;;;;;;;7370719;19;20006;-72
2024/01/24 09:05:08;;;;;;;4.93;1.30;;;;;;;;;;7369020;19;20489;-72
2024/01/24 09:07:33;;;;;;;8.30;1.30;;;;;;;;;;7391220;19;20622;-71
2024/01/24 09:09:59;;;;;;;7.85;1.85;;;;;;;;;;7369259;19;19998;-72
2024/01/24 09:12:24;;;;;;;6.25;2.15;;;;;;;;;;7370400;19;20030;-72
2024/01/24 09:14:49;;;;;;;5.20;1.45;;;;;;;;;;7369000;19;20077;-73
2024/01/24 09:17:17;;;;;;;4.32;1.23;;;;;;;;;;7368244;19;20393;-72
2024/01/24 09:19:44;;;;;;;7.45;1.65;;;;;;;;;;7370738;19;20517;-72
2024/01/24 09:22:09;;;;;;;5.53;1.80;;;;;;;;;;7395418;19;20399;-73
2024/01/24 09:24:35;;;;;;;7.60;1.52;;;;;;;;;;7370014;19;20019;-72
2024/01/24 09:27:01;;;;;;;7.47;1.60;;;;;;;;;;7368235;19;20067;-72
2024/01/24 09:29:26;;;;;;;7.70;1.80;;;;;;;;;;7368296;19;20006;-72
2024/01/24 09:31:52;;;;;;;6.38;1.60;;;;;;;;;;7369315;19;20071;-71
2024/01/24 09:34:17;;;;;;;8.95;1.85;;;;;;;;;;7388216;19;20015;-72
2024/01/24 09:36:43;;;;;;;6.72;1.70;;;;;;;;;;7366989;19;20473;-74
2024/01/24 09:39:09;;;;;;;6.95;1.77;;;;;;;;;;7367574;19;20082;-72
2024/01/24 09:41:40;;;;;;;10.32;1.98;;;;;;;;;;7368910;19;20006;-71
2024/01/24 09:44:06;;;;;;;;;;;;;;;;;;7367767;19;20023;-71
2024/01/24 09:46:34;;;;;;;8.25;2.05;;;;;;;;;;7389543;19;19915;-71
2024/01/24 09:49:01;;;;;;;9.30;2.10;;;;;;;;;;7366782;19;20002;-72
2024/01/24 09:51:29;;;;;;;8.82;2.00;;;;;;;;;;7368094;19;20008;-73
2024/01/24 09:53:56;;;;;;;7.15;1.83;;;;;;;;;;7367150;19;20003;-72
2024/01/24 09:56:22;;;;;;;12.88;2.40;;;;;;;;;;7368689;19;20015;-72
2024/01/24 09:58:48;;;;;;;8.20;2.10;;;;;;;;;;7368763;19;20488;-72
2024/01/24 10:01:14;;;;;;;13.05;2.35;;;;;;;;;;7389411;19;20019;-72
2024/01/24 10:03:40;;;;;;;11.52;4.13;;;;;;;;;;7367188;19;20036;-73
2024/01/24 10:06:09;;;;;;;15.02;2.85;;;;;;;;;;7369105;19;20066;-72
2024/01/24 10:08:34;;;;;;;12.43;2.55;;;;;;;;;;7367999;19;20006;-73
2024/01/24 10:11:00;;;;;;;12.52;2.80;;;;;;;;;;7367433;19;20027;-72
2024/01/24 10:13:26;;;;;;;15.45;3.03;;;;;;;;;;7387928;19;20014;-72
2024/01/24 10:15:53;;;;;;;15.55;3.70;;;;;;;;;;7367066;19;19998;-71
2024/01/24 10:18:19;;;;;;;12.70;2.60;;;;;;;;;;7366267;19;20539;-71
2024/01/24 10:20:46;;;;;;;14.95;2.50;;;;;;;;;;7366767;19;20039;-72
2024/01/24 10:23:12;;;;;;;12.32;3.03;;;;;;;;;;7366782;19;20014;-72
2024/01/24 10:25:43;;;;;;;15.00;2.97;;;;;;;;;;7389107;19;20019;-71
2024/01/24 10:28:13;;;;;;;13.55;2.97;;;;;;;;;;7366610;19;21764;-72
2024/01/24 10:30:40;;;;;;;13.57;3.50;;;;;;;;;;7366470;19;20006;-72
2024/01/24 10:33:10;;;;;;;14.07;2.90;;;;;;;;;;7366035;19;20025;-72
2024/01/24 10:35:36;;;;;;;14.68;3.33;;;;;;;;;;7367147;19;20077;-71
2024/01/24 10:38:02;;;;;;;12.15;3.17;;;;;;;;;;7363921;19;20099;-71
2024/01/24 10:40:28;;;;;;;13.25;3.30;;;;;;;;;;7388302;19;20002;-72
2024/01/24 10:42:59;;;;;;;14.82;3.60;;;;;;;;;;7365490;19;20017;-74
2024/01/24 10:45:26;;;;;;;13.30;3.00;;;;;;;;;;7366667;19;20078;-73
2024/01/24 10:47:52;;;;;;;13.43;2.90;;;;;;;;;;7366325;19;20591;-72
2024/01/24 10:50:20;;;;;;;10.95;2.80;;;;;;;;;;7366335;19;20039;-72
2024/01/24 10:52:46;;;;;;;14.45;3.25;;;;;;;;;;7366202;19;20607;-72
2024/01/24 10:55:13;;;;;;;14.05;3.00;;;;;;;;;;7387467;19;20002;-71
2024/01/24 10:57:43;;;;;;;11.32;3.13;;;;;;;;;;7364604;19;20051;-71
2024/01/24 11:00:11;;;;;;;14.20;3.33;;;;;;;;;;7365965;19;20010;-71
2024/01/24 11:02:42;;;;;;;13.38;3.22;;;;;;;;;;7366273;19;20050;-72
2024/01/24 11:05:14;;;;;;;14.23;3.33;;;;;;;;;;7363775;19;20010;-72
2024/01/24 11:07:53;;;;;;;14.30;3.00;;;;;;;;;;7389635;19;20005;-72
2024/01/24 11:10:33;;;;;;;19.52;3.85;;;;;;;;;;7364558;19;20710;-74
2024/01/24 11:12:59;;;;;;;11.95;2.92;;;;;;;;;;7364211;19;20025;-72
2024/01/24 11:15:28;;;;;;;16.25;5.35;;;;;;;;;;7365471;19;20646;-72
2024/01/24 11:18:31;;;;;;;13.70;4.10;;;;;;;;;;7364600;19;20431;-71
2024/01/24 11:20:58;;;;;;;14.15;3.53;;;;;;;;;;7369142;19;20002;-71
2024/01/24 11:23:35;;;;;;;13.48;3.30;;;;;;;;;;7368199;19;20558;-71
2024/01/24 11:26:01;;;;;;;13.13;2.88;;;;;;;;;;7366112;19;20576;-72
2024/01/24 11:28:26;;;;;;;11.52;3.00;;;;;;;;;;7386593;19;20007;-71
2024/01/24 11:30:52;;;;;;;17.10;3.00;;;;;;;;;;7364923;19;20038;-71
2024/01/24 11:33:18;;;;;;;13.40;2.88;;;;;;;;;;7362903;19;20473;-71
2024/01/24 11:35:45;;;;;;;13.00;2.80;;;;;;;;;;7363534;19;20006;-71
2024/01/24 11:38:16;;;;;;;14.48;3.25;;;;;;;;;;7366487;19;20013;-71
2024/01/24 11:40:45;;;;;;;11.70;2.95;;;;;;;;;;7373999;19;20409;-72
2024/01/24 11:43:23;;;;;;;22.08;4.07;;;;;;;;;;7385426;19;20023;-71
2024/01/24 11:45:52;;;;;;;9.38;2.80;;;;;;;;;;7364292;19;20003;-71
2024/01/24 11:48:19;;;;;;;13.85;3.38;;;;;;;;;;7363335;19;20024;-71
2024/01/24 11:50:46;;;;;;;16.52;3.55;;;;;;;;;;7364172;19;20489;-71
2024/01/24 11:53:11;;;;;;;13.85;3.20;;;;;;;;;;7363380;19;20014;-72
2024/01/24 11:55:37;;;;;;;15.32;3.13;;;;;;;;;;7385852;19;20027;-72
2024/01/24 11:58:03;;;;;;;15.20;3.05;;;;;;;;;;7360641;19;20006;-72
2024/01/24 12:00:28;;;;;;;17.10;3.25;;;;;;;;;;7364432;19;20002;-72
2024/01/24 12:02:53;;;;;;;14.55;3.92;;;;;;;;;;7367115;19;20019;-72
2024/01/24 12:05:20;;;;;;;15.57;3.13;;;;;;;;;;7363896;19;20010;-71
2024/01/24 12:07:45;;;;;;;11.90;3.15;;;;;;;;;;7363362;19;20029;-72
2024/01/24 12:10:11;;;;;;;14.48;3.78;;;;;;;;;;7385590;19;20671;-71
2024/01/24 12:12:38;;;;;;;15.18;3.40;;;;;;;;;;7363372;19;20017;-73
2024/01/24 12:15:04;;;;;;;16.15;3.25;;;;;;;;;;7362417;19;20009;-71
2024/01/24 12:17:29;;;;;;;12.95;3.20;;;;;;;;;;7368965;19;20002;-72
2024/01/24 12:19:57;;;;;;;17.38;3.58;;;;;;;;;;7371282;19;20007;-72
2024/01/24 12:22:24;;;;;;;20.90;3.90;;;;;;;;;;7393076;19;20011;-72
2024/01/24 12:24:49;;;;;;;16.52;3.38;;;;;;;;;;7370567;19;20480;-72
2024/01/24 12:27:15;;;;;;;17.13;3.30;;;;;;;;;;7370605;19;20085;-73
2024/01/24 12:29:41;;;;;;;17.63;2.97;;;;;;;;;;7369766;19;20002;-71
2024/01/24 12:32:08;;;;;;;19.20;3.85;;;;;;;;;;7371481;19;20028;-71
2024/01/24 12:34:33;;;;;;;14.18;3.33;;;;;;;;;;7390859;19;20066;-72
2024/01/24 12:37:00;;;;;;;16.08;3.45;;;;;;;;;;7367499;19;20103;-71
2024/01/24 12:39:31;;;;;;;17.10;3.83;;;;;;;;;;7369282;19;20099;-71
2024/01/24 12:41:57;;;;;;;16.00;3.53;;;;;;;;;;7370993;19;20097;-71
2024/01/24 12:44:22;;;;;;;20.42;3.70;;;;;;;;;;7369532;19;20089;-72
2024/01/24 12:46:54;;;;;;;17.60;3.90;;;;;;;;;;7369373;19;20479;-72
2024/01/24 12:49:20;;;;;;;18.55;3.90;;;;;;;;;;7390547;19;20009;-72
2024/01/24 12:51:47;;;;;;;16.85;3.50;;;;;;;;;;7370089;19;19999;-72
2024/01/24 12:54:12;;;;;;;24.83;4.47;;;;;;;;;;7370300;19;20069;-71
2024/01/24 12:56:37;;;;;;;25.02;9.80;;;;;;;;;;7369550;19;20007;-72
2024/01/24 12:59:03;;;;;;;17.65;4.20;;;;;;;;;;7369292;19;20354;-72
2024/01/24 13:01:28;;;;;;;17.95;3.63;;;;;;;;;;7391757;19;20021;-72
2024/01/24 13:03:53;;;;;;;17.80;4.28;;;;;;;;;;7367636;19;20031;-72
2024/01/24 13:06:19;;;;;;;20.65;3.85;;;;;;;;;;7368999;19;20007;-72
2024/01/24 13:08:44;;;;;;;13.43;3.03;;;;;;;;;;7369536;19;20003;-72
2024/01/24 13:11:10;;;;;;;16.35;3.67;;;;;;;;;;7369398;19;20475;-72
2024/01/24 13:13:35;;;;;;;19.55;3.58;;;;;;;;;;7390520;19;20009;-70
2024/01/24 13:16:00;;;;;;;20.42;3.97;;;;;;;;;;7373192;19;20059;-73
2024/01/24 13:18:27;;;;;;;20.92;3.60;;;;;;;;;;7372240;19;20050;-72
2024/01/24 13:20:52;;;;;;;17.25;3.47;;;;;;;;;;7372529;19;20023;-72
2024/01/24 13:23:18;;;;;;;15.52;3.63;;;;;;;;;;7374872;19;20011;-71
2024/01/24 13:25:43;;;;;;;15.10;3.25;;;;;;;;;;7374930;19;20003;-72
2024/01/24 13:28:08;;;;;;;19.35;3.47;;;;;;;;;;7391306;19;20009;-72
2024/01/24 13:30:34;;;;;;;17.63;3.95;;;;;;;;;;7373002;19;19999;-71
2024/01/24 13:32:59;;;;;;;18.98;3.58;;;;;;;;;;7372878;19;20020;-72
2024/01/24 13:35:25;;;;;;;20.17;4.03;;;;;;;;;;7372479;19;20074;-71
2024/01/24 13:37:50;;;;;;;17.98;3.60;;;;;;;;;;7367692;19;20093;-72
2024/01/24 13:40:17;;;;;;;22.23;4.07;;;;;;;;;;7392484;19;19998;-71
2024/01/24 13:42:42;;;;;;;23.27;3.92;;;;;;;;;;7368671;19;20030;-71
2024/01/24 13:45:08;;;;;;;17.10;3.85;;;;;;;;;;7370992;19;20009;-71
2024/01/24 13:47:33;;;;;;;14.57;3.33;;;;;;;;;;7370009;19;20006;-71
2024/01/24 13:49:58;;;;;;;16.73;3.60;;;;;;;;;;7370678;19;20031;-71
2024/01/24 13:52:24;;;;;;;17.23;3.55;;;;;;;;;;7390776;19;20010;-71
2024/01/24 13:54:49;;;;;;;23.38;4.38;;;;;;;;;;7366726;19;20472;-73
2024/01/24 13:57:14;;;;;;;22.95;3.92;;;;;;;;;;7365907;19;20033;-72
2024/01/24 13:59:39;;;;;;;17.92;4.13;;;;;;;;;;7365051;19;20006;-71
2024/01/24 14:02:05;;;;;;;24.52;4.30;;;;;;;;;;7368088;19;20007;-71
2024/01/24 14:04:30;;;;;;;23.98;4.47;;;;;;;;;;7387115;19;20038;-72
2024/01/24 14:06:55;;;;;;;23.33;4.20;;;;;;;;;;7367346;19;20516;-72
2024/01/24 14:09:21;;;;;;;16.08;3.78;;;;;;;;;;7366829;19;20038;-71
2024/01/24 14:11:47;;;;;;;24.65;4.18;;;;;;;;;;7367899;19;20073;-71
2024/01/24 14:14:12;;;;;;;19.83;3.70;;;;;;;;;;7366453;19;20339;-72
2024/01/24 14:16:38;;;;;;;21.55;4.68;;;;;;;;;;7388393;19;20006;-72
2024/01/24 14:19:03;;;;;;;18.08;3.65;;;;;;;;;;7365298;19;20026;-72
2024/01/24 14:21:32;;;;;;;19.35;4.35;;;;;;;;;;7367716;19;20010;-72
2024/01/24 14:23:58;;;;;;;21.70;3.40;;;;;;;;;;7366830;19;20441;-72
2024/01/24 14:26:29;;;;;;;18.88;3.75;;;;;;;;;;7366888;19;19999;-72
2024/01/24 14:28:54;;;;;;;;;;;;;;;;;;7366824;19;20315;-72
2024/01/24 14:31:19;;;;;;;22.23;3.97;;;;;;;;;;7388268;19;19915;-71